Terminal Aerodrome Forecast
Issued by NWS Twin Cities, MN

Home | Current Version | Previous Version | Text Only | Print | Product List | Glossary Off
Versions: 1 2 3 4 5 6 7 8 9 10 11 12 13 14 15 16 17

000
FTUS43 KMPX 131142
TAFEAU
TAF
KEAU 131142Z 1312/1412 08007KT P6SM OVC120
     FM131500 03007KT P6SM VCSH OVC018
      TEMPO 1315/1318 3SM -FZDZSN BR OVC012
     FM131800 34012G18KT P6SM VCSH OVC012
     FM132300 33008KT P6SM BKN025 OVC050
     FM140300 VRB03KT P6SM OVC025=

USA.gov is the U.S. government's official web portal to all federal, state and local government web resources and services.